Worthington, IA (52078)

7:08 PM CDT on July 28, 2016 (GMT -0500)
South Lake | | Change Station

Elev 1083 ft 42.44 °N, 91.00 °W | Updated 42 seconds ago

Overcast
Overcast
75.0 °F
Feels Like 75 °F
N
7.0
Wind Variable Wind from NW
Gusts 0.0 mph

Today
High -- | Low -- °F
--% Chance of Precip.
Yesterday
High -- | Low -- °F
Precip. -- in
Pressure 29.90 in
Visibility 10.0 miles
Clouds Scattered Clouds 2900 ft
Mostly Cloudy 4300 ft
Overcast 6000 ft
Heat Index 75 °F
Dew Point 70 °F
Humidity 83%
Rainfall 0.00 in
Snow Depth Not available.
5:53 AM 8:27 PM
Waning Crescent, 27% visible
METAR KMXO 282355Z AUTO 34006KT 10SM SCT029 BKN043 OVC060 24/20 A2990 RMK AO2
Pressure 29.90 in
Visibility 10.0 miles
Clouds Scattered Clouds 2900 ft
Mostly Cloudy 4300 ft
Overcast 6000 ft
Heat Index 75 °F
Dew Point 70 °F
Humidity 83%
Rainfall 0.00 in
Snow Depth Not available.
5:53 AM 8:27 PM
Waning Crescent, 27% visible
METAR KMXO 282355Z AUTO 34006KT 10SM SCT029 BKN043 OVC060 24/20 A2990 RMK AO2

10-Day Weather Forecast

Almanac

Astronomy

Jul. 28, 2016 Rise Set
Actual Time
Civil Twilight
Nautical Twilight
Astronomical Twilight
Moon
Length of Visible Light
Length of Day
Tomorrow will be .
, % of the Moon is Illuminated

Today's Extremes

State Highs State Lows

Community

WunderPhotos

Upload Photos

1,928,239 photos uploaded!

WunderBlog® & News

Nearby

Air Quality

  Air Quality AQ Index Pollutant
Not available.

Snow Depth

Station Depth Elevation

Earthquake Activity

City Distance Mag. Time & Date
Minimum magnitude displayed is 2.5.

Coastal Water Temperatures

Place Temperature

Stations

Nearby Weather Stations

Station Location Temp. Windchill Dew Point Humidity Wind Precip. Elev Updated Type
                   

Watches & Warnings

There are currently no watches in effect.